createdAt,value
2022-10-03T04:00:32.693Z,10.40
2022-10-03T04:01:32.664Z,10.34
2022-10-03T04:02:32.718Z,10.36
2022-10-03T04:03:32.609Z,10.34
2022-10-03T04:04:32.597Z,10.33
2022-10-03T04:05:32.595Z,10.33
2022-10-03T04:06:32.584Z,10.32
2022-10-03T04:07:32.561Z,10.30
2022-10-03T04:08:32.556Z,10.32
2022-10-03T04:09:32.541Z,10.30
2022-10-03T04:10:32.528Z,10.27
2022-10-03T04:11:38.030Z,10.29
2022-10-03T04:12:32.507Z,10.29
2022-10-03T04:13:32.493Z,10.23
2022-10-03T04:14:32.481Z,10.20
2022-10-03T04:15:32.469Z,10.33
2022-10-03T04:16:32.541Z,10.22
2022-10-03T04:17:32.466Z,10.20
2022-10-03T04:18:32.442Z,10.23
2022-10-03T04:19:32.426Z,10.18
2022-10-03T04:20:32.416Z,10.27
2022-10-03T04:21:32.412Z,10.27
2022-10-03T04:22:37.418Z,10.22
2022-10-03T04:23:32.414Z,10.23
2022-10-03T04:24:32.368Z,10.20
2022-10-03T04:25:32.356Z,10.23
2022-10-03T04:26:32.358Z,10.22
2022-10-03T04:27:32.336Z,10.15
2022-10-03T04:28:32.399Z,10.17
2022-10-03T04:29:32.314Z,10.22
2022-10-03T04:30:32.299Z,10.18
2022-10-03T04:31:32.363Z,10.15
2022-10-03T04:32:32.297Z,10.22
2022-10-03T04:33:37.299Z,10.12
2022-10-03T04:34:32.827Z,10.14
2022-10-03T04:35:32.240Z,10.23
2022-10-03T04:36:32.245Z,10.22
2022-10-03T04:37:32.219Z,10.20
2022-10-03T04:38:32.215Z,10.22
2022-10-03T04:39:32.194Z,10.25
2022-10-03T04:40:32.193Z,10.12
2022-10-03T04:41:32.201Z,10.23
2022-10-03T04:42:32.163Z,10.20
2022-10-03T04:43:32.148Z,10.25
2022-10-03T04:44:37.162Z,10.23
2022-10-03T04:45:32.172Z,10.15
2022-10-03T04:46:32.139Z,10.12
2022-10-03T04:47:32.104Z,10.15
2022-10-03T04:48:32.118Z,10.11
2022-10-03T04:49:32.081Z,10.05
2022-10-03T04:50:32.076Z,10.14
2022-10-03T04:51:32.069Z,10.15
2022-10-03T04:52:32.053Z,10.12
2022-10-03T04:53:32.038Z,10.09
2022-10-03T04:54:32.029Z,10.17
2022-10-03T04:55:37.035Z,10.04
2022-10-03T04:56:32.015Z,10.09
2022-10-03T04:57:31.994Z,10.15
2022-10-03T04:58:31.978Z,10.07
2022-10-03T04:59:31.966Z,10.14
2022-10-03T05:00:31.963Z,10.05
2022-10-03T05:01:32.010Z,10.05
2022-10-03T05:02:32.006Z,9.97
2022-10-03T05:03:31.926Z,9.90
2022-10-03T05:04:31.934Z,9.89
2022-10-03T05:05:31.898Z,9.99
2022-10-03T05:06:36.923Z,9.94
2022-10-03T05:07:31.873Z,10.01
2022-10-03T05:08:31.863Z,9.94
2022-10-03T05:09:31.850Z,9.89
2022-10-03T05:10:31.842Z,9.99
2022-10-03T05:11:31.839Z,9.99
2022-10-03T05:12:31.818Z,10.02
2022-10-03T05:13:31.808Z,10.01
2022-10-03T05:14:31.798Z,9.96
2022-10-03T05:15:31.782Z,9.97
2022-10-03T05:16:31.874Z,10.01
2022-10-03T05:17:36.782Z,10.09
2022-10-03T05:18:31.754Z,9.96
2022-10-03T05:19:31.737Z,10.01
2022-10-03T05:20:31.748Z,9.97
2022-10-03T05:21:31.724Z,10.08
2022-10-03T05:22:31.704Z,10.08
2022-10-03T05:23:31.690Z,10.09
2022-10-03T05:24:31.681Z,10.08
2022-10-03T05:25:31.741Z,9.99
2022-10-03T05:26:44.713Z,10.09
2022-10-03T05:27:32.644Z,10.04
2022-10-03T05:28:36.656Z,10.05
2022-10-03T05:29:31.623Z,10.12
2022-10-03T05:30:31.618Z,10.15
2022-10-03T05:31:31.653Z,10.08
2022-10-03T05:32:31.592Z,9.97
2022-10-03T05:33:31.581Z,10.01
2022-10-03T05:34:31.569Z,10.02
2022-10-03T05:35:31.566Z,10.09
2022-10-03T05:36:31.574Z,10.09
2022-10-03T05:37:31.531Z,9.94
2022-10-03T05:38:31.521Z,9.99
2022-10-03T05:39:36.533Z,9.94
2022-10-03T05:40:31.498Z,10.02
2022-10-03T05:41:31.497Z,10.02
2022-10-03T05:42:31.476Z,10.09
2022-10-03T05:43:31.462Z,10.08
2022-10-03T05:44:31.454Z,10.02
2022-10-03T05:45:31.499Z,9.99
2022-10-03T05:46:31.440Z,10.02
2022-10-03T05:47:31.415Z,10.07
2022-10-03T05:48:31.407Z,10.11
2022-10-03T05:49:31.393Z,10.17
2022-10-03T05:50:36.410Z,10.07
2022-10-03T05:51:31.381Z,10.14
2022-10-03T05:52:31.379Z,10.20
2022-10-03T05:53:31.350Z,10.22
2022-10-03T05:54:31.337Z,10.22
2022-10-03T05:55:31.327Z,10.23
2022-10-03T05:56:31.327Z,10.25
2022-10-03T05:57:31.306Z,10.17
2022-10-03T05:58:31.293Z,10.17
2022-10-03T05:59:31.277Z,10.14
2022-10-03T06:00:31.270Z,10.14
2022-10-03T06:01:36.716Z,10.20
2022-10-03T06:02:31.350Z,10.25
2022-10-03T06:03:31.274Z,10.20
2022-10-03T06:04:31.222Z,10.23
2022-10-03T06:05:31.210Z,10.25
2022-10-03T06:06:31.199Z,10.23
2022-10-03T06:07:31.206Z,10.25
2022-10-03T06:08:31.213Z,10.20
2022-10-03T06:09:31.162Z,10.25
2022-10-03T06:10:31.154Z,10.22
2022-10-03T06:11:31.143Z,10.27
2022-10-03T06:12:36.179Z,10.32
2022-10-03T06:13:31.119Z,10.30
2022-10-03T06:14:31.111Z,10.30
2022-10-03T06:15:31.212Z,10.38
2022-10-03T06:16:31.128Z,10.38
2022-10-03T06:17:31.083Z,10.42
2022-10-03T06:18:31.062Z,10.41
2022-10-03T06:19:31.051Z,10.36
2022-10-03T06:20:31.050Z,10.45
2022-10-03T06:21:31.026Z,10.38
2022-10-03T06:22:31.026Z,10.33
2022-10-03T06:23:36.042Z,10.26
2022-10-03T06:24:30.996Z,10.25
2022-10-03T06:25:31.014Z,10.17
2022-10-03T06:26:30.985Z,10.25
2022-10-03T06:27:30.968Z,10.14
2022-10-03T06:28:31.111Z,10.17
2022-10-03T06:29:30.945Z,10.17
2022-10-03T06:30:31.017Z,10.27
2022-10-03T06:31:32.173Z,10.25
2022-10-03T06:32:30.913Z,10.22
2022-10-03T06:33:30.892Z,10.14
2022-10-03T06:34:35.912Z,10.25
2022-10-03T06:35:30.865Z,10.15
2022-10-03T06:36:30.857Z,10.20
2022-10-03T06:37:30.859Z,10.14
2022-10-03T06:38:30.833Z,10.08
2022-10-03T06:39:30.838Z,10.15
2022-10-03T06:40:30.870Z,10.23
2022-10-03T06:41:30.817Z,10.23
2022-10-03T06:42:30.789Z,10.32
2022-10-03T06:43:30.807Z,10.36
2022-10-03T06:44:30.769Z,10.38
2022-10-03T06:45:35.773Z,10.34
2022-10-03T06:46:30.829Z,10.36
2022-10-03T06:47:30.739Z,10.29
2022-10-03T06:48:30.718Z,10.40
2022-10-03T06:49:30.706Z,10.44
2022-10-03T06:50:30.697Z,10.42
2022-10-03T06:51:30.913Z,10.41
2022-10-03T06:52:51.671Z,10.44
2022-10-03T06:53:30.660Z,10.42
2022-10-03T06:54:30.658Z,10.55
2022-10-03T06:55:30.670Z,10.53
2022-10-03T06:56:35.660Z,10.55
2022-10-03T06:57:30.617Z,10.59
2022-10-03T06:58:30.651Z,10.48
2022-10-03T06:59:30.594Z,10.56
2022-10-03T07:00:30.582Z,10.55
2022-10-03T07:01:30.638Z,10.63
2022-10-03T07:02:30.647Z,10.61
2022-10-03T07:03:30.552Z,10.67
2022-10-03T07:04:30.538Z,10.59
2022-10-03T07:05:30.524Z,10.61
2022-10-03T07:06:30.828Z,10.64
2022-10-03T07:07:35.626Z,10.71
2022-10-03T07:08:30.492Z,10.81
2022-10-03T07:09:30.485Z,10.88
2022-10-03T07:10:30.469Z,10.71
2022-10-03T07:11:30.477Z,10.71
2022-10-03T07:12:30.456Z,10.67
2022-10-03T07:13:30.448Z,10.64
2022-10-03T07:14:30.425Z,10.73
2022-10-03T07:15:51.091Z,10.81
2022-10-03T07:16:31.489Z,10.70
2022-10-03T07:17:30.399Z,10.66
2022-10-03T07:18:35.404Z,10.68
2022-10-03T07:19:30.365Z,10.78
2022-10-03T07:20:30.357Z,10.86
2022-10-03T07:21:30.345Z,10.89
2022-10-03T07:22:30.346Z,10.97
2022-10-03T07:23:30.320Z,10.91
2022-10-03T07:24:30.318Z,10.91
2022-10-03T07:25:30.309Z,10.99
2022-10-03T07:26:30.295Z,11.02
2022-10-03T07:27:30.325Z,10.96
2022-10-03T07:28:30.511Z,11.06
2022-10-03T07:29:35.274Z,10.97
2022-10-03T07:30:30.248Z,11.09
2022-10-03T07:31:30.341Z,11.17
2022-10-03T07:32:30.242Z,11.17
2022-10-03T07:33:30.244Z,11.14
2022-10-03T07:34:30.204Z,11.15
2022-10-03T07:35:30.234Z,11.17
2022-10-03T07:36:30.221Z,11.09
2022-10-03T07:37:30.173Z,11.17
2022-10-03T07:38:30.177Z,11.17
2022-10-03T07:39:30.170Z,11.19
2022-10-03T07:40:35.152Z,11.21
2022-10-03T07:41:30.116Z,11.25
2022-10-03T07:42:30.116Z,11.40
2022-10-03T07:43:30.111Z,11.39
2022-10-03T07:44:30.089Z,11.35
2022-10-03T07:45:30.069Z,11.35
2022-10-03T07:46:30.139Z,11.42
2022-10-03T07:47:30.062Z,11.55
2022-10-03T07:48:30.040Z,11.62
2022-10-03T07:49:30.030Z,11.61
2022-10-03T07:50:30.015Z,11.67
2022-10-03T07:51:35.023Z,11.72
2022-10-03T07:52:30.009Z,11.98
2022-10-03T07:53:29.979Z,12.31
2022-10-03T07:54:29.970Z,12.57
2022-10-03T07:55:29.963Z,12.78
2022-10-03T07:56:29.950Z,12.75
2022-10-03T07:57:29.948Z,12.75
2022-10-03T07:58:29.926Z,12.49
2022-10-03T07:59:29.935Z,12.42
2022-10-03T08:00:29.900Z,12.35
2022-10-03T08:01:29.900Z,12.39
2022-10-03T08:02:34.964Z,12.23
2022-10-03T08:03:29.933Z,12.28
2022-10-03T08:04:29.854Z,12.29
2022-10-03T08:05:29.843Z,12.39
2022-10-03T08:06:29.832Z,12.38
2022-10-03T08:07:29.822Z,12.47
2022-10-03T08:08:29.818Z,12.64
2022-10-03T08:09:29.800Z,12.67
2022-10-03T08:10:29.792Z,12.82
2022-10-03T08:11:29.777Z,12.71
2022-10-03T08:12:29.764Z,12.57
2022-10-03T08:13:34.792Z,12.59
2022-10-03T08:14:29.748Z,12.59
2022-10-03T08:15:29.803Z,12.65
2022-10-03T08:16:29.727Z,12.67
2022-10-03T08:17:29.822Z,12.70
2022-10-03T08:18:29.707Z,12.72
2022-10-03T08:19:29.687Z,12.72
2022-10-03T08:20:29.676Z,12.71
2022-10-03T08:21:29.791Z,12.71
2022-10-03T08:22:29.753Z,12.74
2022-10-03T08:23:29.692Z,12.71
2022-10-03T08:24:34.652Z,12.85
2022-10-03T08:25:29.626Z,12.90
2022-10-03T08:26:29.611Z,12.90
2022-10-03T08:27:29.604Z,12.90
2022-10-03T08:28:29.683Z,13.17
2022-10-03T08:29:29.575Z,13.07
2022-10-03T08:30:29.569Z,13.00
2022-10-03T08:31:29.629Z,12.95
2022-10-03T08:32:29.542Z,12.97
2022-10-03T08:33:29.603Z,13.05
2022-10-03T08:34:29.519Z,13.04
2022-10-03T08:35:34.532Z,13.08
2022-10-03T08:36:29.496Z,13.20
2022-10-03T08:37:29.488Z,13.15
2022-10-03T08:38:29.486Z,13.15
2022-10-03T08:39:29.469Z,13.07
2022-10-03T08:40:29.483Z,13.04
2022-10-03T08:41:29.446Z,13.10
2022-10-03T08:42:29.436Z,13.04
2022-10-03T08:43:29.433Z,13.12
2022-10-03T08:44:30.635Z,13.20
2022-10-03T08:45:29.399Z,13.30
2022-10-03T08:46:34.470Z,13.38
2022-10-03T08:47:29.377Z,13.54
2022-10-03T08:48:29.385Z,13.51
2022-10-03T08:49:29.354Z,13.57
2022-10-03T08:50:29.342Z,13.60
2022-10-03T08:51:29.330Z,13.70
2022-10-03T08:52:29.319Z,13.66
2022-10-03T08:53:29.322Z,13.69
2022-10-03T08:54:29.302Z,13.69
2022-10-03T08:55:29.289Z,13.66
2022-10-03T08:56:29.307Z,13.67
2022-10-03T08:57:34.323Z,13.69
2022-10-03T08:58:29.268Z,13.75
2022-10-03T08:59:29.304Z,13.81
2022-10-03T09:00:29.420Z,13.79
2022-10-03T09:01:29.298Z,13.88
2022-10-03T09:02:29.392Z,13.87
2022-10-03T09:03:34.322Z,13.85
2022-10-03T09:04:30.186Z,13.91
2022-10-03T09:05:29.180Z,13.78
2022-10-03T09:06:29.166Z,13.59
2022-10-03T09:07:29.156Z,13.49
2022-10-03T09:08:34.179Z,13.32
2022-10-03T09:09:33.131Z,13.30
2022-10-03T09:10:30.139Z,13.41
2022-10-03T09:11:29.107Z,13.49
2022-10-03T09:12:29.184Z,13.45
2022-10-03T09:13:29.110Z,13.51
2022-10-03T09:14:29.079Z,13.51
2022-10-03T09:15:29.060Z,13.54
2022-10-03T09:16:29.155Z,13.51
2022-10-03T09:17:29.047Z,13.49
2022-10-03T09:18:29.070Z,13.57
2022-10-03T09:19:34.091Z,13.66
2022-10-03T09:20:29.009Z,13.85
2022-10-03T09:21:29.710Z,13.99
2022-10-03T09:22:28.986Z,13.96
2022-10-03T09:23:28.980Z,14.00
2022-10-03T09:24:28.986Z,13.99
2022-10-03T09:25:28.973Z,13.97
2022-10-03T09:26:28.988Z,14.15
2022-10-03T09:27:28.924Z,14.15
2022-10-03T09:28:28.986Z,14.24
2022-10-03T09:29:28.901Z,14.15
2022-10-03T09:30:33.907Z,14.02
2022-10-03T09:31:28.908Z,13.96
2022-10-03T09:32:28.863Z,13.95
2022-10-03T09:33:28.877Z,13.99
2022-10-03T09:34:28.881Z,13.92
2022-10-03T09:35:28.837Z,13.91
2022-10-03T09:36:28.887Z,14.00
2022-10-03T09:37:28.807Z,14.00
2022-10-03T09:38:28.825Z,14.02
2022-10-03T09:39:28.786Z,14.07
2022-10-03T09:40:28.785Z,14.15
2022-10-03T09:41:33.865Z,14.15
2022-10-03T09:42:28.746Z,14.10
2022-10-03T09:43:28.748Z,14.18
2022-10-03T09:44:28.730Z,14.17
2022-10-03T09:45:28.715Z,14.17
2022-10-03T09:46:28.756Z,14.24
2022-10-03T09:47:28.694Z,14.21
2022-10-03T09:48:28.735Z,14.36
2022-10-03T09:49:28.793Z,14.40
2022-10-03T09:50:28.714Z,14.39
2022-10-03T09:51:28.651Z,14.40
2022-10-03T09:52:33.658Z,14.35
2022-10-03T09:53:28.638Z,14.46
2022-10-03T09:54:28.609Z,14.51
2022-10-03T09:55:28.609Z,14.62
2022-10-03T09:56:28.651Z,14.72
2022-10-03T09:57:28.582Z,14.72
2022-10-03T09:58:28.575Z,14.73
2022-10-03T09:59:28.579Z,14.88
2022-10-03T10:00:28.550Z,15.02
2022-10-03T10:01:29.376Z,15.14
2022-10-03T10:02:28.523Z,15.35
2022-10-03T10:03:33.602Z,15.35
2022-10-03T10:04:53.264Z,15.23
2022-10-03T10:05:29.516Z,15.10
2022-10-03T10:06:28.605Z,15.02
2022-10-03T10:07:28.463Z,14.99
2022-10-03T10:08:28.464Z,14.94
2022-10-03T10:09:28.442Z,15.06
2022-10-03T10:10:28.662Z,15.02
2022-10-03T10:11:32.889Z,14.99
2022-10-03T10:12:29.409Z,14.91
2022-10-03T10:13:40.017Z,14.86
2022-10-03T10:14:34.406Z,14.78
2022-10-03T10:15:28.373Z,14.91
2022-10-03T10:16:28.430Z,14.86
2022-10-03T10:17:28.357Z,14.84
2022-10-03T10:18:28.337Z,14.84
2022-10-03T10:19:28.338Z,14.75
2022-10-03T10:20:28.319Z,14.75
2022-10-03T10:21:28.309Z,14.75
2022-10-03T10:22:28.313Z,14.75
2022-10-03T10:23:28.302Z,14.89
2022-10-03T10:24:28.299Z,14.84
2022-10-03T10:25:33.287Z,14.88
2022-10-03T10:26:29.522Z,14.84
2022-10-03T10:27:28.265Z,14.86
2022-10-03T10:28:28.351Z,14.84
2022-10-03T10:29:28.870Z,14.73
2022-10-03T10:30:28.200Z,14.70
2022-10-03T10:31:28.348Z,14.69
2022-10-03T10:32:28.178Z,14.64
2022-10-03T10:33:28.185Z,14.68
2022-10-03T10:34:28.168Z,14.73
2022-10-03T10:35:28.153Z,14.68
2022-10-03T10:36:33.156Z,14.64
2022-10-03T10:37:28.122Z,14.72
2022-10-03T10:38:28.132Z,14.68
2022-10-03T10:39:28.117Z,14.65
2022-10-03T10:40:28.093Z,14.68
2022-10-03T10:41:28.079Z,14.70
2022-10-03T10:42:28.074Z,14.69
2022-10-03T10:43:28.055Z,14.77
2022-10-03T10:44:28.054Z,14.75
2022-10-03T10:45:28.070Z,14.86
2022-10-03T10:46:28.077Z,14.86
2022-10-03T10:47:33.031Z,14.91
2022-10-03T10:48:28.004Z,15.07
2022-10-03T10:49:27.996Z,15.16
2022-10-03T10:50:27.977Z,15.20
2022-10-03T10:51:27.972Z,15.35
2022-10-03T10:52:27.958Z,15.36
2022-10-03T10:53:27.955Z,15.54
2022-10-03T10:54:27.965Z,15.64
2022-10-03T10:55:27.918Z,15.59
2022-10-03T10:56:27.906Z,15.64
2022-10-03T10:57:27.895Z,15.56
2022-10-03T10:58:32.909Z,15.57
2022-10-03T10:59:27.884Z,15.60
2022-10-03T11:00:27.913Z,15.62
2022-10-03T11:01:27.856Z,15.54
2022-10-03T11:02:27.844Z,15.60
2022-10-03T11:03:27.830Z,15.53
2022-10-03T11:04:27.910Z,15.47
2022-10-03T11:05:27.806Z,15.38
2022-10-03T11:06:27.791Z,15.44
2022-10-03T11:07:27.783Z,15.46
2022-10-03T11:08:27.771Z,15.31
2022-10-03T11:09:32.836Z,15.39
2022-10-03T11:10:27.750Z,15.44
2022-10-03T11:11:27.736Z,15.43
2022-10-03T11:12:27.726Z,15.47
2022-10-03T11:13:31.069Z,15.51
2022-10-03T11:14:28.713Z,15.49
2022-10-03T11:15:27.691Z,15.46
2022-10-03T11:16:27.788Z,15.29
2022-10-03T11:17:27.673Z,15.21
2022-10-03T11:18:27.665Z,15.21
2022-10-03T11:19:27.670Z,15.20
2022-10-03T11:20:32.655Z,15.17
2022-10-03T11:21:27.632Z,15.28
2022-10-03T11:22:27.608Z,15.47
2022-10-03T11:23:27.600Z,15.59
2022-10-03T11:24:27.601Z,15.68
2022-10-03T11:25:27.608Z,15.90
2022-10-03T11:26:27.573Z,16.24
2022-10-03T11:27:27.557Z,16.34
2022-10-03T11:28:27.621Z,16.28
2022-10-03T11:29:27.556Z,16.15
2022-10-03T11:30:27.529Z,16.00
2022-10-03T11:31:32.558Z,15.87
2022-10-03T11:32:27.496Z,15.86
2022-10-03T11:33:27.489Z,15.75
2022-10-03T11:34:27.474Z,15.68
2022-10-03T11:35:27.480Z,15.69
2022-10-03T11:36:27.452Z,15.54
2022-10-03T11:37:27.441Z,15.54
2022-10-03T11:38:27.430Z,15.56
2022-10-03T11:39:27.425Z,15.53
2022-10-03T11:40:27.426Z,15.54
2022-10-03T11:41:27.421Z,15.51
2022-10-03T11:42:32.404Z,15.56
2022-10-03T11:43:27.374Z,15.54
2022-10-03T11:44:27.373Z,15.49
2022-10-03T11:45:27.412Z,15.50
2022-10-03T11:46:27.346Z,15.54
2022-10-03T11:47:27.350Z,15.46
2022-10-03T11:48:27.314Z,15.56
2022-10-03T11:49:27.316Z,15.54
2022-10-03T11:50:27.294Z,15.51
2022-10-03T11:51:27.287Z,15.53
2022-10-03T11:52:27.290Z,15.49
2022-10-03T11:53:32.285Z,15.51
2022-10-03T11:54:31.618Z,15.57
2022-10-03T11:55:28.236Z,15.51
2022-10-03T11:56:27.225Z,15.47
2022-10-03T11:57:27.279Z,15.49
2022-10-03T11:58:27.204Z,15.44
2022-10-03T11:59:27.206Z,15.46
2022-10-03T12:00:27.179Z,15.57
2022-10-03T12:01:27.168Z,15.49
2022-10-03T12:02:27.194Z,15.57
2022-10-03T12:03:27.227Z,15.57
2022-10-03T12:04:32.165Z,15.56
2022-10-03T12:05:27.123Z,15.54
2022-10-03T12:06:27.111Z,15.60
2022-10-03T12:07:27.101Z,15.53
2022-10-03T12:08:27.119Z,15.60
2022-10-03T12:09:27.097Z,15.68
2022-10-03T12:10:27.065Z,15.68
2022-10-03T12:11:27.058Z,15.71
2022-10-03T12:12:27.048Z,15.74
2022-10-03T12:13:27.054Z,15.67
2022-10-03T12:14:27.032Z,15.65
2022-10-03T12:15:32.058Z,15.86
2022-10-03T12:16:27.029Z,15.93
2022-10-03T12:17:27.109Z,16.01
2022-10-03T12:18:26.975Z,16.12
2022-10-03T12:19:26.975Z,16.52
2022-10-03T12:20:26.952Z,16.81
2022-10-03T12:21:26.939Z,17.38
2022-10-03T12:22:26.931Z,17.77
2022-10-03T12:23:26.917Z,17.58
2022-10-03T12:24:26.921Z,17.66
2022-10-03T12:25:26.899Z,18.18
2022-10-03T12:26:31.907Z,18.41
2022-10-03T12:27:26.871Z,18.33
2022-10-03T12:28:26.898Z,18.10
2022-10-03T12:29:26.883Z,17.86
2022-10-03T12:30:26.847Z,17.64
2022-10-03T12:31:26.928Z,17.55
2022-10-03T12:32:26.820Z,17.49
2022-10-03T12:33:26.803Z,17.34
2022-10-03T12:34:26.805Z,17.28
2022-10-03T12:35:26.781Z,17.08
2022-10-03T12:36:26.774Z,16.85
2022-10-03T12:37:31.783Z,16.73
2022-10-03T12:38:26.747Z,16.68
2022-10-03T12:39:26.759Z,16.63
2022-10-03T12:40:26.727Z,16.58
2022-10-03T12:41:26.712Z,16.58
2022-10-03T12:42:26.708Z,16.56
2022-10-03T12:43:26.690Z,16.56
2022-10-03T12:44:26.684Z,16.45
2022-10-03T12:45:26.707Z,16.30
2022-10-03T12:46:26.723Z,16.21
2022-10-03T12:47:50.628Z,16.15
2022-10-03T12:48:32.652Z,16.07
2022-10-03T12:49:26.621Z,15.93
2022-10-03T12:50:26.625Z,15.94
2022-10-03T12:51:26.601Z,16.01
2022-10-03T12:52:26.591Z,15.96
2022-10-03T12:53:26.576Z,15.90
2022-10-03T12:54:26.922Z,15.94
2022-10-03T12:55:26.562Z,15.86
2022-10-03T12:56:26.542Z,15.82
2022-10-03T12:57:26.594Z,15.75
2022-10-03T12:58:26.521Z,15.75
2022-10-03T12:59:31.551Z,15.71
2022-10-03T13:00:26.497Z,15.78
2022-10-03T13:01:26.585Z,15.82
2022-10-03T13:02:26.543Z,15.83
2022-10-03T13:03:26.461Z,15.86
2022-10-03T13:04:26.455Z,15.76
2022-10-03T13:05:26.457Z,15.75
2022-10-03T13:06:44.544Z,15.74
2022-10-03T13:07:27.416Z,15.69
2022-10-03T13:08:26.408Z,15.71
2022-10-03T13:09:26.396Z,15.69
2022-10-03T13:10:31.419Z,15.71
2022-10-03T13:11:26.374Z,15.67
2022-10-03T13:12:27.914Z,15.71
2022-10-03T13:13:26.347Z,15.72
2022-10-03T13:14:26.339Z,15.89
2022-10-03T13:15:26.469Z,15.84
2022-10-03T13:16:26.315Z,15.92
2022-10-03T13:17:26.327Z,15.90
2022-10-03T13:18:26.293Z,15.92
2022-10-03T13:19:26.284Z,15.94
2022-10-03T13:20:26.280Z,15.97
2022-10-03T13:21:45.478Z,15.97
2022-10-03T13:22:27.252Z,16.00
2022-10-03T13:23:26.236Z,16.07
2022-10-03T13:24:26.225Z,16.08
2022-10-03T13:25:26.223Z,16.08
2022-10-03T13:26:26.203Z,16.09
2022-10-03T13:27:26.190Z,16.12
2022-10-03T13:28:26.243Z,16.15
2022-10-03T13:29:26.168Z,16.30
2022-10-03T13:30:26.177Z,16.25
2022-10-03T13:31:26.199Z,16.27
2022-10-03T13:32:31.176Z,16.33
2022-10-03T13:33:26.124Z,16.46
2022-10-03T13:34:26.113Z,16.30
2022-10-03T13:35:26.132Z,16.50
2022-10-03T13:36:26.093Z,16.50
2022-10-03T13:37:26.080Z,16.49
2022-10-03T13:38:26.070Z,16.52
2022-10-03T13:39:26.061Z,16.58
2022-10-03T13:40:26.059Z,16.53
2022-10-03T13:41:26.035Z,16.61
2022-10-03T13:42:26.027Z,16.56
2022-10-03T13:43:31.033Z,16.52
2022-10-03T13:44:26.002Z,16.60
2022-10-03T13:45:26.010Z,16.64
2022-10-03T13:46:26.084Z,16.63
2022-10-03T13:47:25.975Z,16.61
2022-10-03T13:48:25.977Z,16.66
2022-10-03T13:49:25.946Z,16.60
2022-10-03T13:50:25.944Z,16.56
2022-10-03T13:51:25.930Z,16.60
2022-10-03T13:52:25.911Z,16.58
2022-10-03T13:53:25.898Z,16.57
2022-10-03T13:54:30.910Z,16.50
2022-10-03T13:55:25.892Z,16.53
2022-10-03T13:56:25.865Z,16.49
2022-10-03T13:57:25.854Z,16.45
2022-10-03T13:58:25.842Z,16.46
2022-10-03T13:59:25.831Z,16.49
2022-10-03T14:00:25.832Z,16.46
2022-10-03T14:01:25.852Z,16.34
2022-10-03T14:02:25.826Z,16.28
2022-10-03T14:03:25.789Z,16.30
2022-10-03T14:04:25.793Z,16.21
2022-10-03T14:05:30.797Z,16.27
2022-10-03T14:06:25.752Z,16.28
2022-10-03T14:07:25.751Z,16.33
2022-10-03T14:08:25.756Z,16.38
2022-10-03T14:09:25.729Z,16.33
2022-10-03T14:10:25.708Z,16.33
2022-10-03T14:11:25.705Z,16.33
2022-10-03T14:12:43.905Z,16.38
2022-10-03T14:13:26.703Z,16.34
2022-10-03T14:14:25.664Z,16.33
2022-10-03T14:15:25.653Z,16.31
2022-10-03T14:16:30.672Z,16.31
2022-10-03T14:17:25.628Z,16.34
2022-10-03T14:18:25.660Z,16.34
2022-10-03T14:19:25.604Z,16.38
2022-10-03T14:20:25.627Z,16.42
2022-10-03T14:21:25.592Z,16.43
2022-10-03T14:22:25.599Z,16.35
2022-10-03T14:23:25.560Z,16.35
2022-10-03T14:24:25.551Z,16.31
2022-10-03T14:25:25.542Z,16.35
2022-10-03T14:26:25.537Z,16.28
2022-10-03T14:27:30.535Z,16.33
2022-10-03T14:28:25.561Z,16.41
2022-10-03T14:29:25.490Z,16.43
2022-10-03T14:30:25.483Z,16.46
2022-10-03T14:31:25.496Z,16.39
2022-10-03T14:32:46.143Z,16.45
2022-10-03T14:33:26.446Z,16.39
2022-10-03T14:34:25.435Z,16.45
2022-10-03T14:35:25.424Z,16.49
2022-10-03T14:36:25.487Z,16.48
2022-10-03T14:37:25.404Z,16.48
2022-10-03T14:38:30.411Z,16.53
2022-10-03T14:39:25.383Z,16.49
2022-10-03T14:40:25.368Z,16.50
2022-10-03T14:41:25.370Z,16.46
2022-10-03T14:42:25.350Z,16.52
2022-10-03T14:43:25.334Z,16.42
2022-10-03T14:44:25.327Z,16.31
2022-10-03T14:45:25.310Z,16.28
2022-10-03T14:46:25.308Z,16.34
2022-10-03T14:47:25.289Z,16.28
2022-10-03T14:48:25.281Z,16.33
2022-10-03T14:49:59.899Z,16.35
2022-10-03T14:50:26.254Z,16.34
2022-10-03T14:51:25.250Z,16.33
2022-10-03T14:52:25.288Z,16.31
2022-10-03T14:53:25.217Z,16.33
2022-10-03T14:54:25.214Z,16.42
2022-10-03T14:55:29.723Z,16.45
2022-10-03T14:56:26.207Z,16.41
2022-10-03T14:57:25.173Z,16.31
2022-10-03T14:58:25.162Z,16.31
2022-10-03T14:59:25.156Z,16.30
2022-10-03T15:00:30.162Z,16.31
2022-10-03T15:01:25.138Z,16.30
2022-10-03T15:02:25.166Z,16.33
2022-10-03T15:03:25.186Z,16.23
2022-10-03T15:04:25.096Z,16.24
2022-10-03T15:05:25.093Z,16.17
2022-10-03T15:06:25.083Z,16.17
2022-10-03T15:07:25.060Z,16.11
2022-10-03T15:08:25.086Z,16.09
2022-10-03T15:09:25.049Z,16.14
2022-10-03T15:10:25.036Z,16.17
2022-10-03T15:11:30.069Z,16.17
2022-10-03T15:12:25.004Z,16.15
2022-10-03T15:13:25.013Z,16.14
2022-10-03T15:14:24.992Z,16.15
2022-10-03T15:15:24.970Z,16.23
2022-10-03T15:16:25.053Z,16.07
2022-10-03T15:17:24.947Z,16.07
2022-10-03T15:18:24.941Z,16.12
2022-10-03T15:19:24.923Z,16.12
2022-10-03T15:20:24.912Z,16.11
2022-10-03T15:21:24.919Z,16.12
2022-10-03T15:22:29.926Z,16.12
2022-10-03T15:23:24.890Z,16.02
2022-10-03T15:24:25.613Z,16.05
2022-10-03T15:25:24.857Z,16.00
2022-10-03T15:26:24.861Z,15.96
2022-10-03T15:27:24.836Z,15.94
2022-10-03T15:28:24.901Z,15.96
2022-10-03T15:29:24.809Z,16.00
2022-10-03T15:30:29.157Z,16.00
2022-10-03T15:31:25.864Z,15.97
2022-10-03T15:32:24.778Z,15.93
2022-10-03T15:33:29.784Z,15.92
2022-10-03T15:34:24.753Z,15.92
2022-10-03T15:35:24.740Z,15.96
2022-10-03T15:36:24.738Z,15.93
2022-10-03T15:37:24.728Z,15.87
2022-10-03T15:38:24.708Z,15.89
2022-10-03T15:39:24.698Z,15.92
2022-10-03T15:40:24.711Z,15.87
2022-10-03T15:41:24.680Z,15.89
2022-10-03T15:42:24.673Z,15.87
2022-10-03T15:43:24.652Z,15.83
2022-10-03T15:44:29.664Z,15.83
2022-10-03T15:45:24.631Z,15.80
2022-10-03T15:46:24.692Z,15.72
2022-10-03T15:47:24.617Z,15.68
2022-10-03T15:48:24.595Z,15.68
2022-10-03T15:49:24.582Z,15.71
2022-10-03T15:50:24.583Z,15.64
2022-10-03T15:51:24.559Z,15.71
2022-10-03T15:52:24.562Z,15.69
2022-10-03T15:53:36.215Z,15.65
2022-10-03T15:54:25.537Z,15.68
2022-10-03T15:55:29.569Z,15.71
2022-10-03T15:56:24.511Z,15.64
2022-10-03T15:57:24.504Z,15.62
2022-10-03T15:58:24.481Z,15.60
2022-10-03T15:59:24.468Z,15.60
2022-10-03T16:00:24.493Z,15.54
2022-10-03T16:01:24.525Z,15.62
2022-10-03T16:02:24.568Z,15.50
2022-10-03T16:03:24.421Z,15.57
2022-10-03T16:04:24.412Z,15.65
2022-10-03T16:05:24.400Z,15.54
2022-10-03T16:06:34.919Z,15.59
2022-10-03T16:07:25.387Z,15.54
2022-10-03T16:08:24.368Z,15.59
2022-10-03T16:09:24.368Z,15.60
2022-10-03T16:10:24.345Z,15.54
2022-10-03T16:11:24.368Z,15.59
2022-10-03T16:12:24.325Z,15.59
2022-10-03T16:13:24.308Z,15.50
2022-10-03T16:14:24.304Z,15.54
2022-10-03T16:15:24.286Z,15.54
2022-10-03T16:16:24.366Z,15.60
2022-10-03T16:17:29.288Z,15.57
2022-10-03T16:18:24.254Z,15.51
2022-10-03T16:19:24.241Z,15.54
2022-10-03T16:20:24.231Z,15.49
2022-10-03T16:21:24.219Z,15.57
2022-10-03T16:22:24.226Z,15.51
2022-10-03T16:23:24.194Z,15.54
2022-10-03T16:24:24.184Z,15.51
2022-10-03T16:25:24.170Z,15.49
2022-10-03T16:26:24.164Z,15.54
2022-10-03T16:27:24.190Z,15.54
2022-10-03T16:28:29.225Z,15.51
2022-10-03T16:29:24.205Z,15.50
2022-10-03T16:30:24.118Z,15.44
2022-10-03T16:31:24.210Z,15.44
2022-10-03T16:32:24.102Z,15.43
2022-10-03T16:33:24.088Z,15.35
2022-10-03T16:34:24.072Z,15.29
2022-10-03T16:35:24.061Z,15.31
2022-10-03T16:36:24.047Z,15.36
2022-10-03T16:37:24.048Z,15.31
2022-10-03T16:38:24.024Z,15.31
2022-10-03T16:39:29.036Z,15.32
2022-10-03T16:40:24.003Z,15.31
2022-10-03T16:41:23.992Z,15.23
2022-10-03T16:42:23.990Z,15.28
2022-10-03T16:43:23.990Z,15.23
2022-10-03T16:44:23.966Z,15.25
2022-10-03T16:45:23.982Z,15.23
2022-10-03T16:46:23.935Z,15.32
2022-10-03T16:47:23.936Z,15.20
2022-10-03T16:48:23.912Z,15.14
2022-10-03T16:49:23.903Z,15.16
2022-10-03T16:50:28.911Z,15.19
2022-10-03T16:51:23.879Z,15.13
2022-10-03T16:52:23.893Z,15.11
2022-10-03T16:53:23.867Z,15.02